Time;durP1;ratioP1;P1;durP2;ratioP2;P2;SDS_P1;SDS_P2;PMS_P1;PMS_P2;Temp;Humidity;BMP_temperature;BMP_pressure;BME280_temperature;BME280_humidity;BME280_pressure;Samples;Min_cycle;Max_cycle;Signal;HPM_P1;HPM_P2
2024/03/15 00:15:04;;;;;;;9.63;9.23;;;13.90;27.10;;;;;;5026610;28;20459;-81
2024/03/15 00:18:36;;;;;;;9.93;9.50;;;13.90;26.90;;;;;;5026747;28;20463;-81
2024/03/15 00:21:30;;;;;;;9.87;9.47;;;13.80;26.80;;;;;;5039023;28;20422;-81
2024/03/15 00:25:01;;;;;;;9.70;9.40;;;13.80;27.00;;;;;;5045543;28;20902;-81
2024/03/15 00:28:01;;;;;;;9.47;9.07;;;13.80;27.00;;;;;;5057439;28;20525;-81
2024/03/15 00:38:15;;;;;;;;;;;;;;;;;;;;;
2024/03/15 00:41:51;;;;;;;9.30;8.90;;;13.90;26.60;;;;;;5062691;28;20445;-81
2024/03/15 00:52:01;;;;;;;9.03;8.63;;;13.90;26.70;;;;;;4956114;29;20506;-81
2024/03/15 00:55:30;;;;;;;10.70;10.10;;;13.90;26.50;;;;;;4955309;29;20462;-82
2024/03/15 01:01:55;;;;;;;11.43;10.53;;;13.90;26.30;;;;;;4939119;28;20451;-81
2024/03/15 01:04:47;;;;;;;11.83;11.03;;;13.90;26.30;;;;;;4956828;28;20541;-81
2024/03/15 01:07:45;;;;;;;10.80;10.30;;;13.90;26.40;;;;;;4957838;28;20430;-80
2024/03/15 01:10:37;;;;;;;12.10;11.30;;;13.80;26.90;;;;;;4976373;28;20465;-82
2024/03/15 01:13:10;;;;;;;11.83;11.03;;;13.80;26.50;;;;;;5057059;28;20458;-82
2024/03/15 01:15:52;;;;;;;11.63;10.93;;;13.80;26.50;;;;;;5060156;28;20521;-81
2024/03/15 01:18:25;;;;;;;10.70;10.10;;;13.80;26.70;;;;;;5054718;28;20465;-82
2024/03/15 01:21:26;;;;;;;11.10;10.33;;;13.80;26.60;;;;;;5055913;28;20422;-81
2024/03/15 01:24:45;;;;;;;11.30;10.70;;;13.80;26.50;;;;;;5055125;28;20430;-81
2024/03/15 01:27:42;;;;;;;10.33;9.83;;;13.90;26.50;;;;;;5070210;28;20438;-82
2024/03/15 01:30:14;;;;;;;9.80;9.30;;;13.90;26.50;;;;;;5079345;28;20437;-82
2024/03/15 01:33:02;;;;;;;10.43;9.77;;;13.90;26.30;;;;;;5080375;28;20450;-82
2024/03/15 01:35:44;;;;;;;10.10;9.60;;;13.90;26.40;;;;;;5120550;22;20496;-82
2024/03/15 01:38:16;;;;;;;9.87;9.20;;;13.90;26.20;;;;;;5074395;28;20466;-82
2024/03/15 01:41:03;;;;;;;9.33;8.90;;;13.90;26.70;;;;;;5042562;28;20441;-80
2024/03/15 01:44:00;;;;;;;9.27;8.87;;;13.90;26.40;;;;;;5050695;28;20435;-81
2024/03/15 01:46:40;;;;;;;9.33;8.93;;;13.90;25.90;;;;;;5051577;28;20446;-80
2024/03/15 01:49:26;;;;;;;10.00;9.50;;;13.90;26.40;;;;;;5051220;28;20442;-81
2024/03/15 01:55:28;;;;;;;9.40;8.90;;;13.90;25.90;;;;;;5035709;28;20404;-83
2024/03/15 01:58:09;;;;;;;10.03;9.53;;;13.90;25.80;;;;;;5017286;28;20530;-81
2024/03/15 02:00:56;;;;;;;9.70;9.30;;;13.90;25.90;;;;;;5033673;28;20792;-81
2024/03/15 02:03:34;;;;;;;9.27;8.77;;;13.80;25.80;;;;;;5033340;28;20443;-81
2024/03/15 02:06:30;;;;;;;10.37;9.70;;;13.80;25.80;;;;;;5022690;28;20473;-81
2024/03/15 02:09:02;;;;;;;9.47;9.07;;;13.80;26.30;;;;;;5033196;28;20451;-81
2024/03/15 02:11:29;;;;;;;9.80;9.40;;;13.80;26.20;;;;;;5047368;28;20416;-81
2024/03/15 02:14:00;;;;;;;9.77;9.37;;;13.90;25.90;;;;;;5031416;28;20954;-81
2024/03/15 02:16:37;;;;;;;10.40;9.90;;;13.80;25.80;;;;;;5032296;28;20223;-82
2024/03/15 02:19:12;;;;;;;9.97;9.53;;;13.90;25.90;;;;;;5041093;28;20462;-81
2024/03/15 02:24:37;;;;;;;9.50;9.10;;;13.80;25.80;;;;;;5053062;28;20830;-81
2024/03/15 02:27:38;;;;;;;9.73;9.33;;;13.80;25.80;;;;;;5015915;28;20798;-82
2024/03/15 02:30:25;;;;;;;9.17;8.77;;;13.80;25.80;;;;;;5027879;28;20442;-81
2024/03/15 02:33:06;;;;;;;9.20;8.80;;;13.80;25.80;;;;;;5031705;28;20821;-81
2024/03/15 02:35:40;;;;;;;9.07;8.67;;;13.80;25.80;;;;;;5032066;28;20445;-82
2024/03/15 02:38:18;;;;;;;10.00;9.50;;;13.80;25.80;;;;;;5031830;28;20470;-82
2024/03/15 02:41:09;;;;;;;9.07;8.70;;;13.70;25.70;;;;;;5017287;28;20455;-81
2024/03/15 02:43:54;;;;;;;9.60;9.10;;;13.70;25.70;;;;;;5031384;28;20936;-80
2024/03/15 02:47:25;;;;;;;9.23;8.73;;;13.70;25.70;;;;;;5034152;28;20415;-81
2024/03/15 02:50:30;;;;;;;8.87;8.53;;;13.70;25.70;;;;;;5022795;28;20777;-81
2024/03/15 02:53:27;;;;;;;10.23;9.83;;;13.70;25.70;;;;;;4957491;28;20970;-81
2024/03/15 03:00:25;;;;;;;10.03;9.43;;;13.60;25.60;;;;;;5035313;28;20414;-81
2024/03/15 03:06:11;;;;;;;9.83;9.33;;;13.60;26.00;;;;;;5038219;28;20481;-81
2024/03/15 03:09:00;;;;;;;9.40;9.00;;;13.60;26.00;;;;;;5031480;28;20443;-80
2024/03/15 03:12:18;;;;;;;10.70;9.93;;;13.50;25.60;;;;;;5050870;28;20410;-81
2024/03/15 03:22:13;;;;;;;10.03;9.63;;;13.60;25.60;;;;;;4935510;29;20464;-81
2024/03/15 03:24:47;;;;;;;9.90;9.40;;;13.50;25.80;;;;;;5005785;28;20434;-81
2024/03/15 03:27:40;;;;;;;13.40;10.30;;;13.50;26.00;;;;;;5008434;28;20412;-80
2024/03/15 03:34:08;;;;;;;10.03;9.63;;;13.50;26.00;;;;;;5056520;28;20517;-81
2024/03/15 03:36:46;;;;;;;9.63;9.23;;;13.50;26.20;;;;;;5056348;28;20427;-81
2024/03/15 03:39:30;;;;;;;9.63;9.23;;;13.40;26.00;;;;;;5054992;28;20447;-81
2024/03/15 03:42:36;;;;;;;9.17;8.87;;;13.50;26.30;;;;;;5001329;28;20527;-82
2024/03/15 03:45:15;;;;;;;9.70;9.30;;;13.40;25.80;;;;;;5035312;28;20975;-82
2024/03/15 03:48:31;;;;;;;9.77;9.37;;;13.40;26.00;;;;;;5035162;28;20443;-82
2024/03/15 03:51:22;;;;;;;9.90;9.50;;;13.40;25.90;;;;;;5036398;28;20437;-82
2024/03/15 03:53:59;;;;;;;10.70;10.20;;;13.40;26.10;;;;;;5036523;28;20466;-82
2024/03/15 03:56:29;;;;;;;10.80;10.30;;;13.40;25.90;;;;;;5032144;28;20429;-81
2024/03/15 03:59:28;;;;;;;10.27;9.87;;;13.40;26.00;;;;;;5056501;28;20473;-81
2024/03/15 04:02:08;;;;;;;9.20;8.70;;;13.40;25.50;;;;;;5055016;28;20460;-81
2024/03/15 04:04:59;;;;;;;10.30;9.90;;;13.40;25.50;;;;;;5057364;28;20423;-81
2024/03/15 04:07:33;;;;;;;9.70;9.30;;;13.40;25.50;;;;;;5044507;28;20418;-82
2024/03/15 04:10:03;;;;;;;8.87;8.57;;;13.30;25.90;;;;;;5042831;28;20427;-82
2024/03/15 04:12:45;;;;;;;10.17;9.60;;;13.30;25.40;;;;;;5045984;28;20930;-82
2024/03/15 04:15:54;;;;;;;9.63;9.23;;;13.40;25.50;;;;;;5058016;28;20458;-82
2024/03/15 04:18:34;;;;;;;9.63;9.13;;;13.40;25.50;;;;;;5029064;28;20651;-82
2024/03/15 04:21:25;;;;;;;10.10;9.40;;;13.40;25.50;;;;;;5037836;28;20442;-82
2024/03/15 04:24:16;;;;;;;9.77;9.30;;;13.50;25.20;;;;;;5057040;28;20934;-82
2024/03/15 04:26:53;;;;;;;10.30;9.90;;;13.50;25.20;;;;;;5058266;28;20460;-82
2024/03/15 04:29:31;;;;;;;9.80;9.40;;;13.60;24.60;;;;;;5048913;28;20475;-82
2024/03/15 04:32:09;;;;;;;9.87;9.47;;;13.70;24.60;;;;;;5036487;28;20510;-82
2024/03/15 04:34:51;;;;;;;9.47;9.03;;;13.70;24.50;;;;;;5035997;28;20463;-81
2024/03/15 04:37:48;;;;;;;9.73;9.20;;;13.70;24.40;;;;;;5055926;28;20495;-81
2024/03/15 04:40:16;;;;;;;9.53;9.10;;;13.70;24.00;;;;;;5056920;28;20415;-81
2024/03/15 04:46:11;;;;;;;9.30;8.90;;;13.80;23.80;;;;;;5052770;28;20415;-81
2024/03/15 04:52:02;;;;;;;;;;;;;;;;;;;;;
2024/03/15 04:54:40;;;;;;;8.80;8.50;;;13.90;23.20;;;;;;5051804;28;20826;-81
2024/03/15 04:57:16;;;;;;;;;;;;;;;;;;;;;
2024/03/15 04:59:54;;;;;;;8.57;8.17;;;13.90;23.30;;;;;;5037141;28;20486;-81
2024/03/15 05:03:18;;;;;;;9.40;8.80;;;13.90;22.90;;;;;;5039937;28;20507;-80
2024/03/15 05:06:25;;;;;;;;;;;;;;;;;;;;;
2024/03/15 05:09:29;;;;;;;9.70;9.30;;;13.90;22.70;;;;;;5056375;28;20517;-80
2024/03/15 05:11:55;;;;;;;9.90;9.50;;;13.90;22.90;;;;;;5039755;28;20423;-80
2024/03/15 05:14:26;;;;;;;8.50;8.20;;;13.90;23.00;;;;;;5033546;28;20473;-80
2024/03/15 05:17:33;;;;;;;9.83;9.33;;;13.80;22.80;;;;;;5034636;28;20176;-80
2024/03/15 05:20:46;;;;;;;8.63;8.33;;;13.80;22.60;;;;;;5034240;28;20419;-80
2024/03/15 05:23:47;;;;;;;8.50;8.10;;;13.80;22.60;;;;;;5020223;28;20419;-80
2024/03/15 05:26:32;;;;;;;9.97;9.57;;;13.80;22.40;;;;;;5040887;28;20419;-80
2024/03/15 05:29:00;;;;;;;10.60;10.10;;;13.80;23.00;;;;;;5054953;28;20445;-81
2024/03/15 05:31:39;;;;;;;10.13;9.73;;;13.80;22.90;;;;;;5026296;28;20835;-80
2024/03/15 05:34:43;;;;;;;9.80;9.30;;;13.80;23.20;;;;;;5032406;28;20470;-81
2024/03/15 05:37:37;;;;;;;8.50;8.00;;;13.70;22.70;;;;;;5034026;28;20790;-80
2024/03/15 05:40:15;;;;;;;8.97;8.57;;;13.70;22.70;;;;;;5031525;28;20514;-80
2024/03/15 05:42:44;;;;;;;8.53;8.13;;;13.70;22.80;;;;;;5033447;28;20438;-80
2024/03/15 05:45:20;;;;;;;9.00;8.67;;;13.60;23.00;;;;;;5033340;28;20411;-80
2024/03/15 05:48:10;;;;;;;9.00;8.60;;;13.60;23.30;;;;;;5036130;28;20443;-79
2024/03/15 05:50:42;;;;;;;9.80;9.30;;;13.60;23.40;;;;;;5033133;28;20422;-80
2024/03/15 05:53:09;;;;;;;8.60;8.30;;;13.50;23.40;;;;;;5032683;28;20463;-80
2024/03/15 05:55:40;;;;;;;9.07;8.63;;;13.50;23.40;;;;;;5034742;28;20510;-80
2024/03/15 05:58:27;;;;;;;8.73;8.40;;;13.50;23.30;;;;;;5033336;28;20816;-80
2024/03/15 06:00:53;;;;;;;9.40;9.00;;;13.50;23.60;;;;;;5016351;28;20431;-80
2024/03/15 06:03:44;;;;;;;9.70;9.30;;;13.40;23.60;;;;;;5034716;28;20427;-81
2024/03/15 06:06:40;;;;;;;10.27;9.83;;;13.40;23.80;;;;;;5030560;28;20220;-80
2024/03/15 06:09:13;;;;;;;10.57;9.97;;;13.40;23.90;;;;;;5033220;28;20470;-80
2024/03/15 06:11:39;;;;;;;10.27;9.57;;;13.40;24.40;;;;;;4999605;28;20431;-80
2024/03/15 06:14:29;;;;;;;9.20;8.80;;;13.40;24.10;;;;;;5033873;28;20546;-80
2024/03/15 06:17:19;;;;;;;9.77;9.37;;;13.40;23.70;;;;;;4995213;28;20977;-82
2024/03/15 06:20:18;;;;;;;9.80;9.40;;;13.50;23.80;;;;;;5034343;28;20426;-81
2024/03/15 06:22:46;;;;;;;9.60;9.20;;;13.60;23.80;;;;;;5032612;28;20708;-80
2024/03/15 06:25:12;;;;;;;8.40;8.00;;;13.60;23.60;;;;;;5042536;28;20429;-82
2024/03/15 06:27:44;;;;;;;10.53;9.93;;;13.60;23.60;;;;;;5053641;28;20793;-80
2024/03/15 06:30:12;;;;;;;9.43;9.03;;;13.60;23.40;;;;;;5054035;28;20172;-81
2024/03/15 06:32:41;;;;;;;10.20;9.60;;;13.70;23.30;;;;;;5053075;28;20510;-82
2024/03/15 06:35:20;;;;;;;10.07;9.67;;;13.60;23.00;;;;;;5058244;28;20406;-81
2024/03/15 06:37:53;;;;;;;9.73;9.23;;;13.70;23.30;;;;;;5057394;28;20433;-80
2024/03/15 06:40:30;;;;;;;10.40;9.90;;;13.70;23.20;;;;;;5060240;28;20438;-82
2024/03/15 06:48:18;;;;;;;10.13;9.60;;;13.70;22.80;;;;;;5048834;28;20526;-79
2024/03/15 06:51:00;;;;;;;10.60;10.20;;;13.60;23.10;;;;;;5039633;28;20419;-81
2024/03/15 06:53:32;;;;;;;9.97;9.47;;;13.70;23.10;;;;;;5037674;28;20993;-81
2024/03/15 06:55:58;;;;;;;9.90;9.50;;;13.60;23.60;;;;;;5038593;28;20962;-81
2024/03/15 07:01:56;;;;;;;10.20;9.63;;;13.70;23.20;;;;;;5026421;28;20184;-81
2024/03/15 07:04:29;;;;;;;9.00;8.60;;;13.60;23.60;;;;;;5049145;28;20484;-82
2024/03/15 07:07:09;;;;;;;10.20;9.63;;;13.60;23.30;;;;;;5044752;28;20275;-80
2024/03/15 07:10:18;;;;;;;9.37;8.87;;;13.60;23.30;;;;;;5038824;28;20423;-82
2024/03/15 07:12:49;;;;;;;9.40;9.00;;;13.60;23.30;;;;;;5036432;28;20965;-81
2024/03/15 07:15:15;;;;;;;8.53;8.13;;;13.60;23.00;;;;;;5038987;28;20431;-81
2024/03/15 07:17:47;;;;;;;8.60;8.20;;;13.60;23.10;;;;;;5051828;28;20435;-80
2024/03/15 07:20:32;;;;;;;9.33;8.93;;;13.60;22.90;;;;;;5038686;28;20821;-81
2024/03/15 07:23:21;;;;;;;8.43;7.93;;;13.60;22.50;;;;;;5036387;28;20495;-82
2024/03/15 07:41:31;;;;;;;10.90;10.17;;;13.80;22.40;;;;;;5055667;28;20475;-81
2024/03/15 07:51:28;;;;;;;9.60;9.07;;;14.00;22.30;;;;;;5008922;28;20845;-83
2024/03/15 08:08:05;;;;;;;8.87;8.37;;;14.30;20.20;;;;;;4997439;28;20496;-81
2024/03/15 08:10:34;;;;;;;9.80;9.33;;;14.40;20.70;;;;;;4996319;28;20433;-81
2024/03/15 08:13:03;;;;;;;10.60;10.20;;;14.40;20.10;;;;;;4996674;28;20433;-80
2024/03/15 08:15:32;;;;;;;10.70;10.17;;;14.50;21.10;;;;;;4999148;28;20606;-82
2024/03/15 08:17:59;;;;;;;10.33;9.73;;;14.50;20.90;;;;;;4995899;28;20473;-81
2024/03/15 08:20:33;;;;;;;9.70;9.30;;;14.50;20.90;;;;;;4997527;28;20453;-82
2024/03/15 08:23:15;;;;;;;9.90;9.50;;;14.60;20.10;;;;;;4995907;28;20782;-81
2024/03/15 08:25:44;;;;;;;10.30;9.67;;;14.60;19.80;;;;;;4988483;28;20429;-80
2024/03/15 08:28:38;;;;;;;10.37;9.97;;;14.60;20.20;;;;;;4997182;28;20495;-80
2024/03/15 08:34:58;;;;;;;9.93;9.33;;;14.80;20.30;;;;;;4994609;28;20479;-83
2024/03/15 08:37:53;;;;;;;10.30;9.50;;;14.80;19.80;;;;;;4994684;28;20474;-81
2024/03/15 08:40:30;;;;;;;9.73;9.23;;;14.80;19.80;;;;;;5003865;28;20425;-83
2024/03/15 08:43:21;;;;;;;9.80;9.30;;;14.90;19.80;;;;;;4994584;28;20432;-84
2024/03/15 08:46:39;;;;;;;10.57;9.90;;;14.90;19.80;;;;;;4994589;28;20861;-81
2024/03/15 08:56:46;;;;;;;10.70;10.20;;;15.20;19.60;;;;;;4946383;28;20458;-81
2024/03/15 09:02:04;;;;;;;9.20;8.80;;;15.30;19.40;;;;;;5000766;28;20475;-83
2024/03/15 09:08:34;;;;;;;9.40;8.70;;;15.50;19.70;;;;;;5008312;28;20440;-82
2024/03/15 09:14:40;;;;;;;9.13;8.47;;;16.00;18.90;;;;;;5017387;23;20496;-81
2024/03/15 09:17:12;;;;;;;9.00;8.60;;;16.30;18.50;;;;;;4994062;28;20473;-82
2024/03/15 09:19:38;;;;;;;9.20;8.60;;;16.40;17.90;;;;;;4987447;28;20669;-82
2024/03/15 09:22:03;;;;;;;8.63;8.23;;;16.50;17.60;;;;;;4986448;28;20451;-82
2024/03/15 09:24:31;;;;;;;9.57;9.00;;;16.60;17.40;;;;;;4974844;28;20202;-81
2024/03/15 09:26:57;;;;;;;8.40;7.90;;;16.80;17.40;;;;;;4965572;28;20591;-82
2024/03/15 09:29:23;;;;;;;8.57;8.07;;;16.90;17.00;;;;;;4970037;28;20430;-81
2024/03/15 09:31:51;;;;;;;8.80;8.47;;;16.90;17.10;;;;;;4967884;28;20191;-83
2024/03/15 09:34:17;;;;;;;8.90;8.37;;;16.90;16.90;;;;;;4968990;28;20225;-82
2024/03/15 09:36:47;;;;;;;8.23;7.83;;;17.00;16.80;;;;;;4953093;28;20466;-81
2024/03/15 09:39:14;;;;;;;8.50;8.20;;;17.20;16.50;;;;;;4966925;28;20906;-81
2024/03/15 09:41:45;;;;;;;8.67;8.37;;;17.20;16.10;;;;;;4967898;28;20505;-81
2024/03/15 09:44:14;;;;;;;8.63;8.10;;;17.30;15.90;;;;;;4975356;28;20992;-81
2024/03/15 09:46:41;;;;;;;9.57;8.97;;;17.30;15.70;;;;;;4972794;28;20438;-81
2024/03/15 09:49:12;;;;;;;8.87;8.47;;;17.40;16.20;;;;;;4967697;28;20497;-81
2024/03/15 09:51:40;;;;;;;8.20;7.80;;;17.60;15.50;;;;;;4976604;28;20447;-80
2024/03/15 09:54:10;;;;;;;9.07;8.63;;;17.70;15.70;;;;;;4967335;28;21062;-81
2024/03/15 09:56:38;;;;;;;8.63;8.33;;;17.70;15.50;;;;;;4976464;28;20436;-80
2024/03/15 09:59:10;;;;;;;8.50;8.10;;;17.60;15.50;;;;;;4969517;28;20426;-81
2024/03/15 10:01:37;;;;;;;9.63;8.50;;;17.50;15.30;;;;;;4966992;28;20429;-81
2024/03/15 10:04:07;;;;;;;8.43;8.00;;;17.60;15.60;;;;;;4973982;28;20448;-79
2024/03/15 10:06:33;;;;;;;9.70;9.13;;;17.40;15.50;;;;;;4973723;28;20438;-80
2024/03/15 10:09:00;;;;;;;9.20;8.80;;;17.40;15.90;;;;;;4973396;28;20930;-81
2024/03/15 10:11:26;;;;;;;8.77;8.37;;;17.30;16.00;;;;;;4977857;28;20433;-80
2024/03/15 10:13:52;;;;;;;7.20;6.90;;;17.10;16.40;;;;;;4969832;28;20465;-79
2024/03/15 10:16:17;;;;;;;8.37;8.00;;;17.10;16.40;;;;;;4965312;28;20830;-80
2024/03/15 10:18:43;;;;;;;7.60;7.20;;;17.10;16.30;;;;;;4965140;28;20273;-79
2024/03/15 10:21:09;;;;;;;8.10;7.33;;;17.00;16.60;;;;;;4964890;28;20179;-79
2024/03/15 10:23:34;;;;;;;7.80;7.60;;;16.90;16.70;;;;;;4970632;28;21336;-79
2024/03/15 10:26:18;;;;;;;7.87;7.57;;;16.80;17.20;;;;;;4964566;28;20839;-81
2024/03/15 10:28:46;;;;;;;8.23;7.97;;;16.80;17.90;;;;;;4954147;28;20285;-81
2024/03/15 10:31:11;;;;;;;8.60;8.20;;;16.80;17.30;;;;;;4972149;28;20426;-80
2024/03/15 10:33:38;;;;;;;7.67;7.37;;;16.80;17.90;;;;;;4973718;28;20557;-80
2024/03/15 10:36:03;;;;;;;7.80;7.50;;;16.70;17.70;;;;;;4972991;28;20566;-80
2024/03/15 10:38:29;;;;;;;7.30;7.00;;;16.70;17.60;;;;;;4971368;28;20434;-79
2024/03/15 10:40:59;;;;;;;7.40;7.10;;;16.60;17.30;;;;;;4979069;28;20252;-80
2024/03/15 10:43:25;;;;;;;7.63;7.43;;;16.60;17.60;;;;;;4962929;28;20475;-80
2024/03/15 10:45:52;;;;;;;8.13;7.83;;;16.60;17.50;;;;;;4968840;28;20498;-80
2024/03/15 10:48:19;;;;;;;9.37;8.97;;;16.60;17.70;;;;;;4965287;28;20432;-81
2024/03/15 10:50:46;;;;;;;8.00;7.70;;;16.60;18.40;;;;;;4973183;28;20866;-80
2024/03/15 10:53:16;;;;;;;7.30;7.00;;;16.50;18.90;;;;;;4964027;28;20505;-80
2024/03/15 10:55:50;;;;;;;7.80;7.60;;;16.50;19.30;;;;;;4978216;28;20687;-80
2024/03/15 10:58:15;;;;;;;7.80;7.50;;;16.40;19.10;;;;;;4967494;28;20430;-81
2024/03/15 11:00:42;;;;;;;7.30;7.10;;;16.40;19.00;;;;;;4971206;28;20425;-80
2024/03/15 11:03:24;;;;;;;7.90;7.50;;;16.30;18.80;;;;;;4971703;28;20210;-80
2024/03/15 11:05:50;;;;;;;7.60;7.40;;;16.30;19.50;;;;;;4972731;28;20473;-80
2024/03/15 11:08:19;;;;;;;15.17;14.13;;;16.30;19.40;;;;;;4967884;28;20414;-80
2024/03/15 11:10:56;;;;;;;7.70;7.40;;;16.30;19.70;;;;;;4980233;28;20674;-80
2024/03/15 11:13:53;;;;;;;8.20;7.90;;;16.30;19.60;;;;;;4976037;28;20488;-83
2024/03/15 11:16:58;;;;;;;7.23;6.93;;;16.20;19.50;;;;;;4985025;28;20452;-83
2024/03/15 11:19:27;;;;;;;7.47;7.17;;;16.20;19.50;;;;;;4974208;28;20858;-81
2024/03/15 11:22:05;;;;;;;8.03;7.73;;;16.20;19.70;;;;;;4977201;28;20476;-81
2024/03/15 11:24:57;;;;;;;8.80;8.50;;;16.30;19.80;;;;;;4978677;28;20477;-81
2024/03/15 11:28:00;;;;;;;8.30;7.90;;;16.30;19.20;;;;;;4974941;28;20484;-81
2024/03/15 11:30:39;;;;;;;7.40;7.00;;;16.40;19.30;;;;;;4960500;28;20430;-81
2024/03/15 11:33:07;;;;;;;7.37;7.07;;;16.40;19.30;;;;;;4962656;28;20453;-82
2024/03/15 11:35:49;;;;;;;8.20;7.70;;;16.50;19.30;;;;;;4979326;28;20445;-82
2024/03/15 11:38:36;;;;;;;7.70;7.40;;;16.50;19.30;;;;;;4966510;28;20429;-83
2024/03/15 11:41:06;;;;;;;8.40;8.00;;;16.50;19.30;;;;;;4980753;28;20429;-83
2024/03/15 11:43:37;;;;;;;7.27;6.97;;;16.50;19.30;;;;;;4979416;28;20444;-81
2024/03/15 11:46:09;;;;;;;8.13;7.73;;;16.50;19.30;;;;;;4977639;28;20502;-83
2024/03/15 11:49:28;;;;;;;10.33;9.53;;;16.40;19.30;;;;;;4977291;28;20456;-81
2024/03/15 11:55:34;;;;;;;7.77;7.37;;;16.60;18.80;;;;;;4964910;28;20992;-80
2024/03/15 11:58:56;;;;;;;6.83;6.63;;;16.70;18.40;;;;;;4978443;28;20953;-81
2024/03/15 12:05:16;;;;;;;7.53;7.13;;;16.70;17.40;;;;;;4972984;28;20499;-81
2024/03/15 12:08:31;;;;;;;8.60;8.13;;;16.70;17.30;;;;;;4903836;28;20492;-82
2024/03/15 12:11:14;;;;;;;7.80;7.40;;;16.60;17.40;;;;;;4978433;28;20444;-81
2024/03/15 12:14:13;;;;;;;8.30;8.00;;;16.50;17.80;;;;;;4993260;28;20544;-81
2024/03/15 12:17:22;;;;;;;7.67;7.37;;;16.50;17.90;;;;;;4954021;28;20521;-81
2024/03/15 12:19:56;;;;;;;8.13;7.80;;;16.50;18.10;;;;;;4994059;28;20475;-81
2024/03/15 12:22:33;;;;;;;7.93;7.63;;;16.50;18.10;;;;;;4994460;28;20448;-81
2024/03/15 12:25:08;;;;;;;7.67;7.33;;;16.60;18.00;;;;;;4977584;28;20461;-82
2024/03/15 12:27:37;;;;;;;7.60;7.30;;;16.60;17.40;;;;;;4992815;28;20532;-82
2024/03/15 12:30:34;;;;;;;8.03;7.63;;;16.60;17.10;;;;;;5000725;28;20442;-82
2024/03/15 12:33:29;;;;;;;8.50;8.10;;;16.60;17.00;;;;;;4998553;28;20484;-83
2024/03/15 12:36:28;;;;;;;7.23;6.93;;;16.70;16.80;;;;;;5002411;28;20425;-83
2024/03/15 12:38:56;;;;;;;6.93;6.57;;;16.70;16.60;;;;;;5004106;28;20471;-83
2024/03/15 12:41:25;;;;;;;8.10;7.80;;;16.70;16.80;;;;;;5018730;28;20436;-81
2024/03/15 12:43:55;;;;;;;6.93;6.73;;;16.70;16.90;;;;;;4997767;28;20540;-81
2024/03/15 12:47:04;;;;;;;7.80;7.50;;;16.70;16.80;;;;;;4985843;28;20481;-80
2024/03/15 12:50:02;;;;;;;7.53;7.10;;;16.70;16.70;;;;;;4996376;28;20422;-80
2024/03/15 12:52:55;;;;;;;7.67;7.27;;;16.70;16.30;;;;;;4987167;28;20445;-78
2024/03/15 12:56:04;;;;;;;7.10;6.90;;;16.70;15.80;;;;;;4995462;28;21008;-82
2024/03/15 12:58:51;;;;;;;7.77;7.40;;;16.70;15.80;;;;;;4987039;28;20567;-81
2024/03/15 13:01:41;;;;;;;8.00;7.60;;;16.80;15.20;;;;;;4989833;28;20498;-81
2024/03/15 13:04:17;;;;;;;6.80;6.60;;;16.80;15.20;;;;;;5000952;28;20445;-82
2024/03/15 13:07:22;;;;;;;7.40;6.97;;;16.80;14.80;;;;;;4995270;28;20414;-82
2024/03/15 13:09:54;;;;;;;7.47;7.17;;;16.90;14.60;;;;;;4991831;28;20411;-82
2024/03/15 13:13:38;;;;;;;7.30;7.00;;;17.00;14.40;;;;;;4987593;28;20513;-82
2024/03/15 13:16:25;;;;;;;8.23;7.60;;;17.00;14.60;;;;;;4987689;28;20430;-82
2024/03/15 13:19:32;;;;;;;8.00;7.30;;;17.10;13.90;;;;;;4992684;28;20485;-81
2024/03/15 13:22:19;;;;;;;8.10;7.80;;;17.30;13.70;;;;;;4985400;28;20430;-80
2024/03/15 13:24:52;;;;;;;8.20;7.80;;;17.40;13.10;;;;;;4973728;28;20445;-81
2024/03/15 13:27:19;;;;;;;7.10;6.60;;;17.40;12.90;;;;;;4973113;28;20456;-81
2024/03/15 13:30:36;;;;;;;7.30;6.90;;;17.40;12.80;;;;;;4983268;28;20462;-81
2024/03/15 13:33:39;;;;;;;7.47;7.07;;;17.30;13.70;;;;;;4978618;28;20448;-82
2024/03/15 13:36:14;;;;;;;8.77;8.07;;;17.30;13.20;;;;;;4976345;28;20776;-82
2024/03/15 13:39:28;;;;;;;12.40;11.40;;;17.30;13.50;;;;;;4973510;28;20422;-83
2024/03/15 13:42:16;;;;;;;8.43;8.03;;;17.30;13.30;;;;;;4999224;28;20486;-81
2024/03/15 13:45:03;;;;;;;7.63;7.33;;;17.20;13.50;;;;;;4983119;28;20453;-82
2024/03/15 13:47:30;;;;;;;7.87;7.37;;;17.10;13.40;;;;;;4986600;28;20572;-81
2024/03/15 13:50:39;;;;;;;8.07;7.60;;;17.10;14.00;;;;;;4986576;28;20904;-82
2024/03/15 13:53:25;;;;;;;6.83;6.40;;;17.00;14.20;;;;;;4989462;28;20480;-80
2024/03/15 13:56:05;;;;;;;8.07;7.67;;;16.90;14.60;;;;;;4974415;28;20425;-81
2024/03/15 13:58:36;;;;;;;7.00;6.50;;;16.90;14.10;;;;;;4959693;28;20564;-82
2024/03/15 14:01:21;;;;;;;7.70;7.40;;;16.90;14.40;;;;;;4967486;28;20437;-81
2024/03/15 14:03:48;;;;;;;7.30;7.00;;;16.80;14.30;;;;;;4972898;28;20457;-81
2024/03/15 14:06:41;;;;;;;7.57;7.10;;;16.80;13.80;;;;;;4971686;28;20440;-82
2024/03/15 14:09:55;;;;;;;6.77;6.50;;;16.80;13.90;;;;;;4978845;28;20437;-82
2024/03/15 14:12:49;;;;;;;6.50;6.10;;;16.70;14.20;;;;;;4963844;28;20461;-81
2024/03/15 14:16:32;;;;;;;7.83;7.43;;;16.70;14.20;;;;;;4983254;28;20910;-83
2024/03/15 14:19:48;;;;;;;6.87;6.53;;;16.70;14.60;;;;;;4978934;28;20472;-82
2024/03/15 14:22:36;;;;;;;7.83;7.43;;;16.80;14.20;;;;;;4978657;28;20501;-83
2024/03/15 14:25:16;;;;;;;7.80;7.40;;;16.80;14.60;;;;;;4979218;28;20429;-83
2024/03/15 14:27:48;;;;;;;6.73;6.43;;;16.70;14.60;;;;;;4975576;28;20442;-82
2024/03/15 14:30:18;;;;;;;6.63;6.43;;;16.60;14.80;;;;;;4972272;28;20868;-83
2024/03/15 14:32:45;;;;;;;6.70;6.50;;;16.60;14.70;;;;;;4977012;28;20441;-83
2024/03/15 14:35:30;;;;;;;7.33;6.93;;;16.60;15.00;;;;;;4966259;28;20481;-83
2024/03/15 14:38:07;;;;;;;7.07;6.77;;;16.50;15.10;;;;;;4974918;28;20437;-82
2024/03/15 14:41:02;;;;;;;7.67;7.17;;;16.60;15.10;;;;;;4962348;28;20441;-81
2024/03/15 14:43:53;;;;;;;8.20;7.83;;;16.70;15.20;;;;;;4959565;28;20567;-81
2024/03/15 14:46:22;;;;;;;7.53;7.20;;;16.50;15.00;;;;;;4972385;28;20444;-83
2024/03/15 14:48:48;;;;;;;8.00;7.50;;;16.50;15.40;;;;;;4968297;28;20425;-82
2024/03/15 14:51:20;;;;;;;7.43;7.10;;;16.50;15.50;;;;;;4959733;28;20433;-82
2024/03/15 14:53:52;;;;;;;7.20;6.90;;;16.50;15.40;;;;;;4977394;28;20473;-83
2024/03/15 14:56:20;;;;;;;7.40;7.20;;;16.50;15.60;;;;;;4981060;28;20422;-83
2024/03/15 14:58:51;;;;;;;8.50;8.10;;;16.50;15.40;;;;;;4981262;28;20434;-82
2024/03/15 15:01:18;;;;;;;7.57;7.17;;;16.60;15.00;;;;;;4965839;28;20449;-83
2024/03/15 15:03:49;;;;;;;7.90;7.60;;;16.60;15.10;;;;;;4981881;28;20445;-83
2024/03/15 15:10:01;;;;;;;7.43;7.13;;;16.60;14.80;;;;;;4998524;28;20444;-83
2024/03/15 15:13:04;;;;;;;7.40;7.10;;;16.60;14.60;;;;;;4985943;28;20480;-82
2024/03/15 15:15:46;;;;;;;7.60;7.13;;;16.60;14.80;;;;;;5007423;22;20579;-81
2024/03/15 15:18:37;;;;;;;8.43;7.93;;;16.60;14.60;;;;;;5004933;28;20539;-82
2024/03/15 15:21:33;;;;;;;7.87;7.37;;;16.60;14.60;;;;;;4980135;28;20496;-82
2024/03/15 15:24:21;;;;;;;7.63;7.30;;;16.50;15.00;;;;;;4985095;28;20484;-80
2024/03/15 15:26:51;;;;;;;7.53;7.20;;;16.40;15.00;;;;;;4978016;28;20434;-82
2024/03/15 15:34:02;;;;;;;8.50;8.03;;;16.30;15.00;;;;;;4980374;28;20956;-83
2024/03/15 15:37:37;;;;;;;7.87;7.57;;;16.30;15.40;;;;;;4992285;28;20418;-82
2024/03/15 15:41:21;;;;;;;8.00;7.60;;;16.30;15.80;;;;;;4980120;28;20406;-82
2024/03/15 15:48:50;;;;;;;7.83;7.53;;;16.30;15.30;;;;;;4938634;29;20873;-81
2024/03/15 15:52:36;;;;;;;7.77;7.47;;;16.40;15.80;;;;;;4883577;29;20415;-82
2024/03/15 16:06:58;;;;;;;7.10;6.80;;;16.40;15.80;;;;;;4881734;29;20437;-81
2024/03/15 16:10:25;;;;;;;6.70;6.40;;;16.40;15.80;;;;;;4873025;29;20438;-81
2024/03/15 16:13:52;;;;;;;14.53;10.40;;;16.30;16.00;;;;;;4966547;28;20438;-81
2024/03/15 16:17:17;;;;;;;7.60;7.13;;;16.30;15.90;;;;;;5015465;28;20440;-81
2024/03/15 16:20:37;;;;;;;;;;;;;;;;;;;;;
2024/03/15 16:23:59;;;;;;;8.30;7.87;;;16.40;15.80;;;;;;4977552;28;20450;-81
2024/03/15 16:27:26;;;;;;;8.10;7.70;;;16.40;15.50;;;;;;4988205;28;20422;-81
2024/03/15 16:30:43;;;;;;;8.03;7.33;;;16.30;15.70;;;;;;4988946;28;20806;-81
2024/03/15 16:33:53;;;;;;;7.00;6.70;;;16.20;15.70;;;;;;4969885;28;20528;-81
2024/03/15 16:37:19;;;;;;;7.60;7.30;;;16.20;15.70;;;;;;4984848;28;20426;-81
2024/03/15 16:41:08;;;;;;;7.33;7.03;;;16.30;15.90;;;;;;4978356;28;20422;-81
2024/03/15 16:44:20;;;;;;;6.57;6.27;;;16.20;16.10;;;;;;4985738;28;20908;-81
2024/03/15 16:51:30;;;;;;;7.67;7.37;;;16.10;16.30;;;;;;4985138;28;20425;-81
2024/03/15 16:58:24;;;;;;;9.30;8.70;;;16.10;16.60;;;;;;4984644;28;20421;-82
2024/03/15 17:04:56;;;;;;;7.53;7.03;;;16.10;16.90;;;;;;5001576;28;20519;-82
2024/03/15 17:18:56;;;;;;;7.87;7.47;;;15.90;16.30;;;;;;4939061;29;20547;-84
2024/03/15 17:25:33;;;;;;;7.00;6.60;;;15.80;16.20;;;;;;4900373;29;20823;-83
2024/03/15 17:28:58;;;;;;;7.37;6.87;;;15.90;16.30;;;;;;4909044;29;20552;-82
2024/03/15 17:32:09;;;;;;;6.47;6.13;;;15.90;16.70;;;;;;4910623;29;20420;-83